sensor_id;sensor_type;location;lat;lon;timestamp;pressure;altitude;pressure_sealevel;temperature;humidity
21904;BME280;11116;51.554;7.812;2022-10-03T00:00:11;101563.56;;;9.41;100.00
21904;BME280;11116;51.554;7.812;2022-10-03T00:03:06;101568.56;;;9.32;100.00
21904;BME280;11116;51.554;7.812;2022-10-03T00:05:54;101572.63;;;9.37;100.00
21904;BME280;11116;51.554;7.812;2022-10-03T00:08:36;101571.56;;;9.66;100.00
21904;BME280;11116;51.554;7.812;2022-10-03T00:11:17;101577.56;;;9.56;100.00
21904;BME280;11116;51.554;7.812;2022-10-03T00:13:53;101574.69;;;9.32;100.00
21904;BME280;11116;51.554;7.812;2022-10-03T00:16:28;101577.63;;;9.28;100.00
21904;BME280;11116;51.554;7.812;2022-10-03T00:19:07;101573.63;;;9.35;100.00
21904;BME280;11116;51.554;7.812;2022-10-03T00:21:51;101575.16;;;9.39;100.00
21904;BME280;11116;51.554;7.812;2022-10-03T00:24:30;101574.22;;;9.40;100.00
21904;BME280;11116;51.554;7.812;2022-10-03T00:27:02;101576.81;;;9.54;100.00
21904;BME280;11116;51.554;7.812;2022-10-03T00:29:41;101585.16;;;9.34;100.00
21904;BME280;11116;51.554;7.812;2022-10-03T00:32:24;101583.94;;;9.25;100.00
21904;BME280;11116;51.554;7.812;2022-10-03T00:35:03;101585.22;;;9.32;100.00
21904;BME280;11116;51.554;7.812;2022-10-03T00:37:35;101581.06;;;9.42;100.00
21904;BME280;11116;51.554;7.812;2022-10-03T00:40:24;101587.78;;;9.34;100.00
21904;BME280;11116;51.554;7.812;2022-10-03T00:43:17;101592.88;;;9.23;100.00
21904;BME280;11116;51.554;7.812;2022-10-03T00:49:14;101603.97;;;9.42;100.00
21904;BME280;11116;51.554;7.812;2022-10-03T00:52:02;101611.59;;;9.32;100.00
21904;BME280;11116;51.554;7.812;2022-10-03T00:54:45;101613.50;;;9.16;100.00
21904;BME280;11116;51.554;7.812;2022-10-03T00:57:27;101611.59;;;9.32;100.00
21904;BME280;11116;51.554;7.812;2022-10-03T01:00:12;101614.88;;;9.36;100.00
21904;BME280;11116;51.554;7.812;2022-10-03T01:02:47;101617.13;;;9.42;100.00
21904;BME280;11116;51.554;7.812;2022-10-03T01:05:26;101613.28;;;9.33;100.00
21904;BME280;11116;51.554;7.812;2022-10-03T01:08:11;101618.66;;;9.32;100.00
21904;BME280;11116;51.554;7.812;2022-10-03T01:10:52;101622.88;;;9.20;100.00
21904;BME280;11116;51.554;7.812;2022-10-03T01:13:30;101626.00;;;9.27;100.00
21904;BME280;11116;51.554;7.812;2022-10-03T01:16:11;101623.94;;;9.18;100.00
21904;BME280;11116;51.554;7.812;2022-10-03T01:18:52;101627.16;;;9.23;100.00
21904;BME280;11116;51.554;7.812;2022-10-03T01:21:32;101634.66;;;9.29;100.00
21904;BME280;11116;51.554;7.812;2022-10-03T01:24:31;101630.41;;;9.40;100.00
21904;BME280;11116;51.554;7.812;2022-10-03T01:27:05;101635.31;;;9.32;100.00
21904;BME280;11116;51.554;7.812;2022-10-03T01:29:44;101633.84;;;9.14;100.00
21904;BME280;11116;51.554;7.812;2022-10-03T01:32:38;101638.53;;;9.23;100.00
21904;BME280;11116;51.554;7.812;2022-10-03T01:35:16;101641.44;;;9.19;100.00
21904;BME280;11116;51.554;7.812;2022-10-03T01:37:53;101638.81;;;9.19;100.00
21904;BME280;11116;51.554;7.812;2022-10-03T01:40:28;101636.66;;;9.25;100.00
21904;BME280;11116;51.554;7.812;2022-10-03T01:43:10;101633.72;;;9.30;100.00
21904;BME280;11116;51.554;7.812;2022-10-03T01:45:47;101636.94;;;9.21;100.00
21904;BME280;11116;51.554;7.812;2022-10-03T01:48:24;101641.63;;;9.16;100.00
21904;BME280;11116;51.554;7.812;2022-10-03T01:51:00;101638.72;;;9.20;100.00
21904;BME280;11116;51.554;7.812;2022-10-03T01:53:41;101637.78;;;9.21;100.00
21904;BME280;11116;51.554;7.812;2022-10-03T01:56:20;101640.59;;;9.18;100.00
21904;BME280;11116;51.554;7.812;2022-10-03T01:58:57;101637.41;;;9.13;100.00
21904;BME280;11116;51.554;7.812;2022-10-03T02:01:33;101648.31;;;9.21;100.00
21904;BME280;11116;51.554;7.812;2022-10-03T02:04:11;101646.63;;;9.06;100.00
21904;BME280;11116;51.554;7.812;2022-10-03T02:06:47;101650.94;;;8.93;100.00
21904;BME280;11116;51.554;7.812;2022-10-03T02:09:26;101655.75;;;9.15;100.00
21904;BME280;11116;51.554;7.812;2022-10-03T02:12:00;101654.53;;;9.06;100.00
21904;BME280;11116;51.554;7.812;2022-10-03T02:14:37;101655.06;;;8.97;100.00
21904;BME280;11116;51.554;7.812;2022-10-03T02:17:12;101659.59;;;9.23;100.00
21904;BME280;11116;51.554;7.812;2022-10-03T02:19:44;101660.75;;;9.05;100.00
21904;BME280;11116;51.554;7.812;2022-10-03T02:22:15;101668.66;;;8.91;100.00
21904;BME280;11116;51.554;7.812;2022-10-03T02:25:04;101665.59;;;8.83;100.00
21904;BME280;11116;51.554;7.812;2022-10-03T02:27:46;101671.16;;;8.78;100.00
21904;BME280;11116;51.554;7.812;2022-10-03T02:30:25;101677.00;;;8.53;100.00
21904;BME280;11116;51.554;7.812;2022-10-03T02:33:30;101679.56;;;8.55;100.00
21904;BME280;11116;51.554;7.812;2022-10-03T02:36:24;101679.38;;;8.58;100.00
21904;BME280;11116;51.554;7.812;2022-10-03T02:42:33;101687.53;;;8.97;100.00
21904;BME280;11116;51.554;7.812;2022-10-03T02:48:22;101690.13;;;8.69;100.00
21904;BME280;11116;51.554;7.812;2022-10-03T02:51:30;101696.06;;;8.73;100.00
21904;BME280;11116;51.554;7.812;2022-10-03T02:54:29;101693.19;;;8.91;100.00
21904;BME280;11116;51.554;7.812;2022-10-03T02:57:30;101705.09;;;9.13;100.00
21904;BME280;11116;51.554;7.812;2022-10-03T03:00:08;101700.66;;;9.13;100.00
21904;BME280;11116;51.554;7.812;2022-10-03T03:03:05;101699.16;;;9.23;100.00
21904;BME280;11116;51.554;7.812;2022-10-03T03:06:05;101695.59;;;9.24;100.00
21904;BME280;11116;51.554;7.812;2022-10-03T03:08:53;101690.88;;;9.15;100.00
21904;BME280;11116;51.554;7.812;2022-10-03T03:11:38;101699.91;;;9.11;100.00
21904;BME280;11116;51.554;7.812;2022-10-03T03:17:31;101692.84;;;9.12;100.00
21904;BME280;11116;51.554;7.812;2022-10-03T03:20:30;101704.59;;;9.20;100.00
21904;BME280;11116;51.554;7.812;2022-10-03T03:26:32;101699.25;;;9.07;100.00
21904;BME280;11116;51.554;7.812;2022-10-03T03:29:15;101704.03;;;9.01;100.00
21904;BME280;11116;51.554;7.812;2022-10-03T03:31:54;101703.81;;;8.90;100.00
21904;BME280;11116;51.554;7.812;2022-10-03T03:34:32;101710.59;;;8.94;100.00
21904;BME280;11116;51.554;7.812;2022-10-03T03:37:05;101706.16;;;8.94;100.00
21904;BME280;11116;51.554;7.812;2022-10-03T03:40:02;101707.56;;;8.86;100.00
21904;BME280;11116;51.554;7.812;2022-10-03T03:42:52;101708.91;;;8.93;100.00
21904;BME280;11116;51.554;7.812;2022-10-03T03:45:34;101719.47;;;9.07;100.00
21904;BME280;11116;51.554;7.812;2022-10-03T03:48:17;101706.88;;;9.12;100.00
21904;BME280;11116;51.554;7.812;2022-10-03T03:51:03;101709.44;;;9.28;100.00
21904;BME280;11116;51.554;7.812;2022-10-03T03:53:49;101712.91;;;9.28;100.00
21904;BME280;11116;51.554;7.812;2022-10-03T03:56:39;101713.00;;;9.27;100.00
21904;BME280;11116;51.554;7.812;2022-10-03T03:59:25;101715.25;;;9.47;100.00
21904;BME280;11116;51.554;7.812;2022-10-03T04:02:09;101714.69;;;9.56;100.00
21904;BME280;11116;51.554;7.812;2022-10-03T04:04:52;101711.69;;;9.48;100.00
21904;BME280;11116;51.554;7.812;2022-10-03T04:07:32;101711.50;;;9.51;100.00
21904;BME280;11116;51.554;7.812;2022-10-03T04:10:21;101707.94;;;9.66;100.00
21904;BME280;11116;51.554;7.812;2022-10-03T04:13:06;101714.13;;;9.65;100.00
21904;BME280;11116;51.554;7.812;2022-10-03T04:15:54;101716.28;;;9.58;100.00
21904;BME280;11116;51.554;7.812;2022-10-03T04:18:37;101721.38;;;9.61;100.00
21904;BME280;11116;51.554;7.812;2022-10-03T04:21:39;101717.16;;;9.59;100.00
21904;BME280;11116;51.554;7.812;2022-10-03T04:24:39;101719.97;;;9.56;100.00
21904;BME280;11116;51.554;7.812;2022-10-03T04:27:25;101726.41;;;9.66;100.00
21904;BME280;11116;51.554;7.812;2022-10-03T04:30:05;101727.41;;;9.63;100.00
21904;BME280;11116;51.554;7.812;2022-10-03T04:33:00;101729.41;;;9.74;100.00
21904;BME280;11116;51.554;7.812;2022-10-03T04:35:49;101721.28;;;9.77;100.00
21904;BME280;11116;51.554;7.812;2022-10-03T04:38:25;101725.91;;;9.74;100.00
21904;BME280;11116;51.554;7.812;2022-10-03T04:41:11;101725.34;;;9.69;100.00
21904;BME280;11116;51.554;7.812;2022-10-03T04:43:49;101733.72;;;9.75;100.00
21904;BME280;11116;51.554;7.812;2022-10-03T04:46:28;101726.25;;;9.82;100.00
21904;BME280;11116;51.554;7.812;2022-10-03T04:49:03;101729.22;;;9.77;100.00
21904;BME280;11116;51.554;7.812;2022-10-03T04:51:50;101721.28;;;9.77;100.00
21904;BME280;11116;51.554;7.812;2022-10-03T04:54:28;101715.72;;;9.82;100.00
21904;BME280;11116;51.554;7.812;2022-10-03T04:57:01;101711.59;;;9.78;100.00
21904;BME280;11116;51.554;7.812;2022-10-03T04:59:39;101721.38;;;9.76;100.00
21904;BME280;11116;51.554;7.812;2022-10-03T05:05:22;101721.47;;;9.74;100.00
21904;BME280;11116;51.554;7.812;2022-10-03T05:07:58;101724.84;;;9.76;100.00
21904;BME280;11116;51.554;7.812;2022-10-03T05:10:49;101722.59;;;9.70;100.00
21904;BME280;11116;51.554;7.812;2022-10-03T05:13:27;101728.66;;;9.72;100.00
21904;BME280;11116;51.554;7.812;2022-10-03T05:16:02;101723.75;;;9.66;100.00
21904;BME280;11116;51.554;7.812;2022-10-03T05:18:39;101729.22;;;9.63;100.00
21904;BME280;11116;51.554;7.812;2022-10-03T05:21:12;101721.19;;;9.79;100.00
21904;BME280;11116;51.554;7.812;2022-10-03T05:23:46;101725.16;;;9.72;100.00
21904;BME280;11116;51.554;7.812;2022-10-03T05:26:23;101729.03;;;9.66;100.00
21904;BME280;11116;51.554;7.812;2022-10-03T05:28:57;101737.97;;;9.49;100.00
21904;BME280;11116;51.554;7.812;2022-10-03T05:31:43;101743.59;;;9.43;100.00
21904;BME280;11116;51.554;7.812;2022-10-03T05:34:22;101750.97;;;9.38;100.00
21904;BME280;11116;51.554;7.812;2022-10-03T05:37:16;101748.88;;;9.29;100.00
21904;BME280;11116;51.554;7.812;2022-10-03T05:39:52;101756.53;;;9.34;100.00
21904;BME280;11116;51.554;7.812;2022-10-03T05:42:34;101756.34;;;9.51;100.00
21904;BME280;11116;51.554;7.812;2022-10-03T05:45:06;101753.41;;;9.27;100.00
21904;BME280;11116;51.554;7.812;2022-10-03T05:47:49;101764.97;;;9.25;100.00
21904;BME280;11116;51.554;7.812;2022-10-03T05:50:48;101763.09;;;9.27;100.00
21904;BME280;11116;51.554;7.812;2022-10-03T05:53:45;101763.75;;;9.16;100.00
21904;BME280;11116;51.554;7.812;2022-10-03T05:56:31;101760.53;;;9.11;100.00
21904;BME280;11116;51.554;7.812;2022-10-03T05:59:36;101769.09;;;9.15;100.00
21904;BME280;11116;51.554;7.812;2022-10-03T06:02:31;101767.47;;;9.12;100.00
21904;BME280;11116;51.554;7.812;2022-10-03T06:05:14;101772.88;;;9.11;100.00
21904;BME280;11116;51.554;7.812;2022-10-03T06:10:47;101767.47;;;9.12;100.00
21904;BME280;11116;51.554;7.812;2022-10-03T06:13:24;101774.09;;;9.19;100.00
21904;BME280;11116;51.554;7.812;2022-10-03T06:16:02;101769.88;;;9.17;100.00
21904;BME280;11116;51.554;7.812;2022-10-03T06:19:01;101776.47;;;9.38;100.00
21904;BME280;11116;51.554;7.812;2022-10-03T06:31:37;101789.22;;;9.59;100.00
21904;BME280;11116;51.554;7.812;2022-10-03T06:34:32;101780.38;;;9.60;100.00
21904;BME280;11116;51.554;7.812;2022-10-03T06:40:30;101787.72;;;9.84;100.00
21904;BME280;11116;51.554;7.812;2022-10-03T06:43:30;101784.88;;;9.87;100.00
21904;BME280;11116;51.554;7.812;2022-10-03T06:46:18;101787.34;;;10.04;100.00
21904;BME280;11116;51.554;7.812;2022-10-03T06:49:16;101791.06;;;10.28;100.00
21904;BME280;11116;51.554;7.812;2022-10-03T06:52:01;101794.88;;;10.24;100.00
21904;BME280;11116;51.554;7.812;2022-10-03T06:55:11;101796.47;;;10.27;100.00
21904;BME280;11116;51.554;7.812;2022-10-03T07:04:12;101793.44;;;10.59;100.00
21904;BME280;11116;51.554;7.812;2022-10-03T07:10:20;101795.94;;;10.75;100.00
21904;BME280;11116;51.554;7.812;2022-10-03T07:13:14;101795.88;;;10.89;100.00
21904;BME280;11116;51.554;7.812;2022-10-03T07:18:59;101803.59;;;10.92;100.00
21904;BME280;11116;51.554;7.812;2022-10-03T07:22:09;101800.91;;;11.19;100.00
21904;BME280;11116;51.554;7.812;2022-10-03T07:25:09;101797.75;;;11.26;100.00
21904;BME280;11116;51.554;7.812;2022-10-03T07:27:51;101803.47;;;11.33;100.00
21904;BME280;11116;51.554;7.812;2022-10-03T07:30:24;101804.56;;;11.43;100.00
21904;BME280;11116;51.554;7.812;2022-10-03T07:36:30;101804.84;;;11.64;100.00
21904;BME280;11116;51.554;7.812;2022-10-03T07:39:39;101800.31;;;11.66;100.00
21904;BME280;11116;51.554;7.812;2022-10-03T07:42:29;101806.91;;;11.73;100.00
21904;BME280;11116;51.554;7.812;2022-10-03T07:45:27;101807.88;;;11.72;100.00
21904;BME280;11116;51.554;7.812;2022-10-03T07:48:22;101817.88;;;11.67;100.00
21904;BME280;11116;51.554;7.812;2022-10-03T07:51:09;101815.91;;;11.83;100.00
21904;BME280;11116;51.554;7.812;2022-10-03T08:00:21;101816.06;;;12.18;100.00
21904;BME280;11116;51.554;7.812;2022-10-03T08:03:26;101818.81;;;12.16;100.00
21904;BME280;11116;51.554;7.812;2022-10-03T08:06:18;101815.97;;;12.56;100.00
21904;BME280;11116;51.554;7.812;2022-10-03T08:09:26;101820.63;;;12.52;100.00
21904;BME280;11116;51.554;7.812;2022-10-03T08:12:18;101822.44;;;12.52;100.00
21904;BME280;11116;51.554;7.812;2022-10-03T08:14:56;101820.53;;;12.54;100.00
21904;BME280;11116;51.554;7.812;2022-10-03T08:20:38;101824.50;;;13.07;100.00
21904;BME280;11116;51.554;7.812;2022-10-03T08:26:11;101807.88;;;13.28;100.00
21904;BME280;11116;51.554;7.812;2022-10-03T08:28:54;101820.63;;;13.80;100.00
21904;BME280;11116;51.554;7.812;2022-10-03T08:38:16;101819.91;;;14.45;97.04
21904;BME280;11116;51.554;7.812;2022-10-03T08:47:23;101831.94;;;13.49;98.88
21904;BME280;11116;51.554;7.812;2022-10-03T08:50:14;101831.81;;;13.50;99.94
21904;BME280;11116;51.554;7.812;2022-10-03T08:52:57;101837.56;;;13.33;100.00
21904;BME280;11116;51.554;7.812;2022-10-03T08:55:44;101846.31;;;12.99;100.00
21904;BME280;11116;51.554;7.812;2022-10-03T09:04:58;101846.47;;;13.32;100.00
21904;BME280;11116;51.554;7.812;2022-10-03T09:07:47;101838.69;;;13.64;100.00
21904;BME280;11116;51.554;7.812;2022-10-03T09:10:34;101850.81;;;13.90;100.00
21904;BME280;11116;51.554;7.812;2022-10-03T09:13:34;101850.94;;;14.00;100.00
21904;BME280;11116;51.554;7.812;2022-10-03T09:19:20;101845.47;;;13.68;99.80
21904;BME280;11116;51.554;7.812;2022-10-03T09:22:14;101845.88;;;13.97;100.00
21904;BME280;11116;51.554;7.812;2022-10-03T09:25:02;101844.59;;;13.56;100.00
21904;BME280;11116;51.554;7.812;2022-10-03T09:27:45;101842.38;;;14.07;99.60
21904;BME280;11116;51.554;7.812;2022-10-03T09:30:23;101839.47;;;14.22;98.39
21904;BME280;11116;51.554;7.812;2022-10-03T09:39:14;101835.44;;;15.03;95.51
21904;BME280;11116;51.554;7.812;2022-10-03T09:42:06;101818.16;;;14.98;93.07
21904;BME280;11116;51.554;7.812;2022-10-03T09:48:00;101832.53;;;14.63;94.20
21904;BME280;11116;51.554;7.812;2022-10-03T09:50:53;101827.16;;;14.54;94.60
21904;BME280;11116;51.554;7.812;2022-10-03T09:56:52;101824.13;;;14.14;94.58
21904;BME280;11116;51.554;7.812;2022-10-03T09:59:39;101831.38;;;14.56;95.75
21904;BME280;11116;51.554;7.812;2022-10-03T10:02:54;101824.13;;;14.90;95.14
21904;BME280;11116;51.554;7.812;2022-10-03T10:05:49;101821.38;;;14.38;95.64
21904;BME280;11116;51.554;7.812;2022-10-03T10:08:50;101818.44;;;14.30;95.11
21904;BME280;11116;51.554;7.812;2022-10-03T10:11:37;101826.56;;;14.39;94.47
21904;BME280;11116;51.554;7.812;2022-10-03T10:14:36;101824.50;;;14.09;95.15
21904;BME280;11116;51.554;7.812;2022-10-03T10:20:23;101826.22;;;14.33;95.60
21904;BME280;11116;51.554;7.812;2022-10-03T10:23:16;101820.25;;;14.94;93.47
21904;BME280;11116;51.554;7.812;2022-10-03T10:29:34;101802.56;;;16.36;86.67
21904;BME280;11116;51.554;7.812;2022-10-03T10:35:43;101799.41;;;15.52;85.13
21904;BME280;11116;51.554;7.812;2022-10-03T10:48:00;101793.72;;;15.66;83.62
21904;BME280;11116;51.554;7.812;2022-10-03T10:57:09;101783.84;;;15.77;83.74
21904;BME280;11116;51.554;7.812;2022-10-03T11:09:37;101770.50;;;16.08;78.39
21904;BME280;11116;51.554;7.812;2022-10-03T11:12:36;101773.81;;;17.36;78.14
21904;BME280;11116;51.554;7.812;2022-10-03T11:19:19;101765.50;;;17.48;77.09
21904;BME280;11116;51.554;7.812;2022-10-03T11:22:17;101770.50;;;16.76;78.95
21904;BME280;11116;51.554;7.812;2022-10-03T11:25:27;101762.38;;;16.28;76.89
21904;BME280;11116;51.554;7.812;2022-10-03T11:28:34;101760.94;;;16.93;76.33
21904;BME280;11116;51.554;7.812;2022-10-03T11:32:02;101755.19;;;16.88;75.99
21904;BME280;11116;51.554;7.812;2022-10-03T11:37:42;101746.56;;;17.23;73.53
21904;BME280;11116;51.554;7.812;2022-10-03T11:40:26;101751.63;;;17.82;73.81
21904;BME280;11116;51.554;7.812;2022-10-03T11:43:12;101750.22;;;17.22;73.61
21904;BME280;11116;51.554;7.812;2022-10-03T11:45:46;101738.78;;;17.58;72.51
21904;BME280;11116;51.554;7.812;2022-10-03T11:48:28;101753.19;;;17.75;72.54
21904;BME280;11116;51.554;7.812;2022-10-03T11:51:02;101747.56;;;17.78;73.11
21904;BME280;11116;51.554;7.812;2022-10-03T11:53:44;101740.94;;;17.35;72.73
21904;BME280;11116;51.554;7.812;2022-10-03T11:56:31;101738.81;;;18.13;70.71
21904;BME280;11116;51.554;7.812;2022-10-03T11:59:26;101733.31;;;17.40;70.32
21904;BME280;11116;51.554;7.812;2022-10-03T12:02:08;101738.41;;;17.80;70.29
21904;BME280;11116;51.554;7.812;2022-10-03T12:04:47;101736.78;;;17.60;71.13
21904;BME280;11116;51.554;7.812;2022-10-03T12:07:27;101731.63;;;17.39;69.92
21904;BME280;11116;51.554;7.812;2022-10-03T12:10:36;101732.56;;;17.67;70.68
21904;BME280;11116;51.554;7.812;2022-10-03T12:13:12;101731.41;;;17.23;70.57
21904;BME280;11116;51.554;7.812;2022-10-03T12:15:45;101737.19;;;16.80;72.34
21904;BME280;11116;51.554;7.812;2022-10-03T12:18:19;101733.00;;;16.97;72.30
21904;BME280;11116;51.554;7.812;2022-10-03T12:21:08;101733.13;;;17.05;72.11
21904;BME280;11116;51.554;7.812;2022-10-03T12:23:55;101728.66;;;16.77;72.34
21904;BME280;11116;51.554;7.812;2022-10-03T12:26:34;101734.78;;;16.49;73.00
21904;BME280;11116;51.554;7.812;2022-10-03T12:29:10;101732.53;;;16.25;74.39
21904;BME280;11116;51.554;7.812;2022-10-03T12:31:41;101739.59;;;16.64;75.47
21904;BME280;11116;51.554;7.812;2022-10-03T12:34:27;101735.69;;;16.68;74.64
21904;BME280;11116;51.554;7.812;2022-10-03T12:37:16;101731.13;;;17.07;73.52
21904;BME280;11116;51.554;7.812;2022-10-03T12:40:00;101722.13;;;17.18;71.14
21904;BME280;11116;51.554;7.812;2022-10-03T12:42:33;101719.94;;;16.94;70.83
21904;BME280;11116;51.554;7.812;2022-10-03T12:45:12;101724.56;;;17.48;70.76
21904;BME280;11116;51.554;7.812;2022-10-03T12:47:56;101721.97;;;17.29;71.11
21904;BME280;11116;51.554;7.812;2022-10-03T12:50:37;101734.84;;;16.68;73.05
21904;BME280;11116;51.554;7.812;2022-10-03T12:53:30;101741.44;;;16.54;72.31
21904;BME280;11116;51.554;7.812;2022-10-03T12:56:05;101733.03;;;16.09;74.74
21904;BME280;11116;51.554;7.812;2022-10-03T12:58:47;101743.44;;;15.82;76.08
21904;BME280;11116;51.554;7.812;2022-10-03T13:01:25;101732.25;;;15.88;75.86
21904;BME280;11116;51.554;7.812;2022-10-03T13:03:54;101738.00;;;16.52;75.38
21904;BME280;11116;51.554;7.812;2022-10-03T13:06:48;101730.16;;;16.51;73.91
21904;BME280;11116;51.554;7.812;2022-10-03T13:09:24;101733.06;;;16.28;74.02
21904;BME280;11116;51.554;7.812;2022-10-03T13:12:05;101739.09;;;16.21;75.44
21904;BME280;11116;51.554;7.812;2022-10-03T13:17:47;101740.34;;;16.17;74.16
21904;BME280;11116;51.554;7.812;2022-10-03T13:20:22;101734.16;;;16.07;74.98
21904;BME280;11116;51.554;7.812;2022-10-03T13:22:59;101742.81;;;15.90;75.94
21904;BME280;11116;51.554;7.812;2022-10-03T13:25:34;101756.06;;;15.80;78.12
21904;BME280;11116;51.554;7.812;2022-10-03T13:28:09;101764.94;;;15.39;79.42
21904;BME280;11116;51.554;7.812;2022-10-03T13:30:45;101753.91;;;15.44;78.96
21904;BME280;11116;51.554;7.812;2022-10-03T13:33:17;101752.06;;;15.44;79.92
21904;BME280;11116;51.554;7.812;2022-10-03T13:35:48;101749.78;;;15.51;80.37
21904;BME280;11116;51.554;7.812;2022-10-03T13:38:45;101744.50;;;15.60;78.01
21904;BME280;11116;51.554;7.812;2022-10-03T13:41:30;101737.44;;;15.80;76.17
21904;BME280;11116;51.554;7.812;2022-10-03T13:44:00;101732.69;;;15.83;76.88
21904;BME280;11116;51.554;7.812;2022-10-03T13:46:37;101734.28;;;15.96;78.82
21904;BME280;11116;51.554;7.812;2022-10-03T13:49:15;101733.78;;;15.81;77.95
21904;BME280;11116;51.554;7.812;2022-10-03T13:51:49;101727.16;;;16.15;76.80
21904;BME280;11116;51.554;7.812;2022-10-03T13:54:22;101735.03;;;16.46;76.76
21904;BME280;11116;51.554;7.812;2022-10-03T13:56:56;101722.72;;;16.45;76.29
21904;BME280;11116;51.554;7.812;2022-10-03T13:59:38;101717.50;;;16.33;75.37
21904;BME280;11116;51.554;7.812;2022-10-03T14:02:23;101716.53;;;16.25;74.18
21904;BME280;11116;51.554;7.812;2022-10-03T14:05:17;101720.28;;;16.13;74.25
21904;BME280;11116;51.554;7.812;2022-10-03T14:07:53;101714.66;;;16.25;75.92
21904;BME280;11116;51.554;7.812;2022-10-03T14:10:59;101718.22;;;16.35;75.76
21904;BME280;11116;51.554;7.812;2022-10-03T14:13:40;101721.84;;;16.34;76.77
21904;BME280;11116;51.554;7.812;2022-10-03T14:16:16;101716.25;;;16.28;76.97
21904;BME280;11116;51.554;7.812;2022-10-03T14:18:52;101720.41;;;16.11;76.72
21904;BME280;11116;51.554;7.812;2022-10-03T14:21:48;101711.03;;;16.26;75.00
21904;BME280;11116;51.554;7.812;2022-10-03T14:24:26;101704.00;;;16.25;75.08
21904;BME280;11116;51.554;7.812;2022-10-03T14:27:01;101704.06;;;16.64;75.31
21904;BME280;11116;51.554;7.812;2022-10-03T14:29:38;101703.34;;;16.43;73.90
21904;BME280;11116;51.554;7.812;2022-10-03T14:32:18;101700.25;;;16.47;73.95
21904;BME280;11116;51.554;7.812;2022-10-03T14:34:55;101697.75;;;16.65;73.79
21904;BME280;11116;51.554;7.812;2022-10-03T14:37:30;101692.56;;;16.82;73.97
21904;BME280;11116;51.554;7.812;2022-10-03T14:40:11;101690.41;;;17.05;73.99
21904;BME280;11116;51.554;7.812;2022-10-03T14:42:52;101692.00;;;16.88;73.97
21904;BME280;11116;51.554;7.812;2022-10-03T14:45:26;101684.53;;;16.73;72.04
21904;BME280;11116;51.554;7.812;2022-10-03T14:47:58;101697.69;;;16.26;75.18
21904;BME280;11116;51.554;7.812;2022-10-03T14:50:30;101694.72;;;16.01;73.57
21904;BME280;11116;51.554;7.812;2022-10-03T14:53:03;101699.69;;;16.24;75.71
21904;BME280;11116;51.554;7.812;2022-10-03T14:55:36;101696.16;;;16.24;74.41
21904;BME280;11116;51.554;7.812;2022-10-03T14:58:05;101693.50;;;16.24;74.18
21904;BME280;11116;51.554;7.812;2022-10-03T15:00:41;101695.75;;;16.38;73.16
21904;BME280;11116;51.554;7.812;2022-10-03T15:03:29;101685.09;;;16.48;74.22
21904;BME280;11116;51.554;7.812;2022-10-03T15:06:01;101693.50;;;16.53;75.22
21904;BME280;11116;51.554;7.812;2022-10-03T15:08:35;101693.69;;;16.61;75.26
21904;BME280;11116;51.554;7.812;2022-10-03T15:11:04;101688.59;;;16.38;75.11
21904;BME280;11116;51.554;7.812;2022-10-03T15:13:37;101691.78;;;16.04;76.38
21904;BME280;11116;51.554;7.812;2022-10-03T15:16:08;101694.28;;;15.96;76.87
21904;BME280;11116;51.554;7.812;2022-10-03T15:18:40;101684.56;;;15.75;77.65
21904;BME280;11116;51.554;7.812;2022-10-03T15:21:17;101682.47;;;15.89;77.33
21904;BME280;11116;51.554;7.812;2022-10-03T15:23:48;101682.13;;;16.12;76.72
21904;BME280;11116;51.554;7.812;2022-10-03T15:26:20;101676.06;;;16.01;75.38
21904;BME280;11116;51.554;7.812;2022-10-03T15:28:50;101680.88;;;16.35;76.54
21904;BME280;11116;51.554;7.812;2022-10-03T15:31:27;101675.91;;;16.02;76.09
21904;BME280;11116;51.554;7.812;2022-10-03T15:33:59;101676.78;;;16.12;77.39
21904;BME280;11116;51.554;7.812;2022-10-03T15:36:31;101667.81;;;16.32;76.44
21904;BME280;11116;51.554;7.812;2022-10-03T15:39:05;101668.09;;;16.49;76.30
21904;BME280;11116;51.554;7.812;2022-10-03T15:41:35;101667.28;;;16.67;75.31
21904;BME280;11116;51.554;7.812;2022-10-03T15:44:17;101673.31;;;15.72;78.40
21904;BME280;11116;51.554;7.812;2022-10-03T15:46:49;101664.97;;;15.56;78.42
21904;BME280;11116;51.554;7.812;2022-10-03T15:49:24;101663.16;;;15.47;78.23
21904;BME280;11116;51.554;7.812;2022-10-03T15:51:53;101661.47;;;15.95;77.95
21904;BME280;11116;51.554;7.812;2022-10-03T15:54:25;101655.53;;;15.82;77.87
21904;BME280;11116;51.554;7.812;2022-10-03T15:56:55;101652.13;;;15.70;80.36
21904;BME280;11116;51.554;7.812;2022-10-03T15:59:26;101648.00;;;15.26;78.85
21904;BME280;11116;51.554;7.812;2022-10-03T16:01:55;101656.00;;;15.26;82.41
21904;BME280;11116;51.554;7.812;2022-10-03T16:04:25;101653.56;;;15.14;82.24
21904;BME280;11116;51.554;7.812;2022-10-03T16:06:59;101644.06;;;15.21;81.28
21904;BME280;11116;51.554;7.812;2022-10-03T16:09:38;101641.13;;;15.24;81.83
21904;BME280;11116;51.554;7.812;2022-10-03T16:12:34;101644.28;;;15.29;82.61
21904;BME280;11116;51.554;7.812;2022-10-03T16:15:16;101644.66;;;15.24;82.04
21904;BME280;11116;51.554;7.812;2022-10-03T16:17:50;101642.38;;;14.90;82.34
21904;BME280;11116;51.554;7.812;2022-10-03T16:20:21;101639.91;;;14.56;82.89
21904;BME280;11116;51.554;7.812;2022-10-03T16:22:51;101644.81;;;14.40;84.44
21904;BME280;11116;51.554;7.812;2022-10-03T16:25:23;101646.09;;;14.14;88.02
21904;BME280;11116;51.554;7.812;2022-10-03T16:27:53;101659.06;;;13.96;90.52
21904;BME280;11116;51.554;7.812;2022-10-03T16:30:25;101662.00;;;13.82;92.76
21904;BME280;11116;51.554;7.812;2022-10-03T16:33:02;101651.88;;;13.65;93.87